sensor_id;sensor_type;location;lat;lon;timestamp;pressure;altitude;pressure_sealevel;temperature;humidity
39823;BME280;25499;53.958;10.970;2022-07-22T05:23:18;101625.97;;;15.83;100.00
39823;BME280;25499;53.958;10.970;2022-07-22T05:28:27;101630.00;;;16.13;100.00
39823;BME280;25499;53.958;10.970;2022-07-22T05:30:53;101634.19;;;16.30;100.00
39823;BME280;25499;53.958;10.970;2022-07-22T05:33:18;101636.09;;;16.14;100.00
39823;BME280;25499;53.958;10.970;2022-07-22T05:35:43;101622.97;;;16.15;100.00
39823;BME280;25499;53.958;10.970;2022-07-22T05:38:09;101630.88;;;16.12;100.00
39823;BME280;25499;53.958;10.970;2022-07-22T05:40:34;101627.97;;;16.35;100.00
39823;BME280;25499;53.958;10.970;2022-07-22T05:42:59;101626.31;;;16.28;100.00
39823;BME280;25499;53.958;10.970;2022-07-22T05:45:24;101635.00;;;16.35;100.00
39823;BME280;25499;53.958;10.970;2022-07-22T05:47:50;101628.13;;;16.25;100.00
39823;BME280;25499;53.958;10.970;2022-07-22T05:50:15;101628.75;;;16.44;100.00
39823;BME280;25499;53.958;10.970;2022-07-22T05:52:40;101636.34;;;16.64;100.00
39823;BME280;25499;53.958;10.970;2022-07-22T05:55:06;101627.72;;;16.54;100.00
39823;BME280;25499;53.958;10.970;2022-07-22T05:57:32;101629.41;;;16.58;100.00
39823;BME280;25499;53.958;10.970;2022-07-22T05:59:57;101637.06;;;16.75;100.00
39823;BME280;25499;53.958;10.970;2022-07-22T06:02:23;101640.53;;;16.78;99.34
39823;BME280;25499;53.958;10.970;2022-07-22T06:04:48;101636.25;;;16.68;100.00
39823;BME280;25499;53.958;10.970;2022-07-22T06:07:14;101643.16;;;16.78;100.00
39823;BME280;25499;53.958;10.970;2022-07-22T06:12:14;101640.72;;;16.65;99.36
39823;BME280;25499;53.958;10.970;2022-07-22T06:14:40;101639.44;;;16.95;99.24
39823;BME280;25499;53.958;10.970;2022-07-22T06:17:05;101639.63;;;16.79;99.17
39823;BME280;25499;53.958;10.970;2022-07-22T06:22:08;101642.97;;;16.94;98.27
39823;BME280;25499;53.958;10.970;2022-07-22T06:24:35;101641.31;;;16.85;98.00
39823;BME280;25499;53.958;10.970;2022-07-22T06:27:00;101645.44;;;17.03;98.45
39823;BME280;25499;53.958;10.970;2022-07-22T06:29:26;101640.19;;;17.03;97.98
39823;BME280;25499;53.958;10.970;2022-07-22T06:31:52;101640.38;;;16.91;97.61
39823;BME280;25499;53.958;10.970;2022-07-22T06:34:18;101642.09;;;16.92;97.13
39823;BME280;25499;53.958;10.970;2022-07-22T06:36:44;101641.84;;;17.09;97.32
39823;BME280;25499;53.958;10.970;2022-07-22T06:39:09;101642.03;;;16.96;97.62
39823;BME280;25499;53.958;10.970;2022-07-22T06:41:35;101642.84;;;17.00;96.92
39823;BME280;25499;53.958;10.970;2022-07-22T06:44:00;101648.00;;;17.09;96.35
39823;BME280;25499;53.958;10.970;2022-07-22T06:46:25;101644.66;;;16.98;96.61
39823;BME280;25499;53.958;10.970;2022-07-22T06:48:51;101648.06;;;17.03;96.53
39823;BME280;25499;53.958;10.970;2022-07-22T06:51:16;101641.84;;;17.09;95.69
39823;BME280;25499;53.958;10.970;2022-07-22T06:56:17;101647.25;;;17.00;96.53
39823;BME280;25499;53.958;10.970;2022-07-22T06:58:42;101648.38;;;17.38;96.45
39823;BME280;25499;53.958;10.970;2022-07-22T07:01:08;101652.56;;;17.49;96.12
39823;BME280;25499;53.958;10.970;2022-07-22T07:03:33;101645.66;;;17.44;96.10
39823;BME280;25499;53.958;10.970;2022-07-22T07:06:18;101649.59;;;17.69;94.56
39823;BME280;25499;53.958;10.970;2022-07-22T07:11:18;101657.34;;;17.77;93.06
39823;BME280;25499;53.958;10.970;2022-07-22T07:13:43;101658.66;;;18.03;91.94
39823;BME280;25499;53.958;10.970;2022-07-22T07:16:10;101660.06;;;18.19;92.72
39823;BME280;25499;53.958;10.970;2022-07-22T07:18:36;101667.72;;;18.33;90.79
39823;BME280;25499;53.958;10.970;2022-07-22T07:21:03;101669.06;;;18.51;90.79
39823;BME280;25499;53.958;10.970;2022-07-22T07:23:31;101661.41;;;18.40;90.33
39823;BME280;25499;53.958;10.970;2022-07-22T07:25:58;101663.19;;;18.40;89.47
39823;BME280;25499;53.958;10.970;2022-07-22T07:28:46;101665.66;;;18.48;90.40
39823;BME280;25499;53.958;10.970;2022-07-22T07:31:17;101669.06;;;18.51;90.55
39823;BME280;25499;53.958;10.970;2022-07-22T07:33:42;101667.44;;;18.45;90.09
39823;BME280;25499;53.958;10.970;2022-07-22T07:36:08;101673.78;;;18.37;90.17
39823;BME280;25499;53.958;10.970;2022-07-22T07:38:33;101673.53;;;18.49;89.11
39823;BME280;25499;53.958;10.970;2022-07-22T07:40:59;101673.09;;;18.27;88.91
39823;BME280;25499;53.958;10.970;2022-07-22T07:43:25;101670.53;;;18.24;88.94
39823;BME280;25499;53.958;10.970;2022-07-22T07:45:51;101682.59;;;18.36;89.12
39823;BME280;25499;53.958;10.970;2022-07-22T07:48:17;101678.44;;;18.24;89.15
39823;BME280;25499;53.958;10.970;2022-07-22T07:50:42;101674.25;;;18.14;88.96
39823;BME280;25499;53.958;10.970;2022-07-22T07:53:07;101674.28;;;18.12;89.78
39823;BME280;25499;53.958;10.970;2022-07-22T07:55:34;101684.22;;;17.99;89.47
39823;BME280;25499;53.958;10.970;2022-07-22T07:58:04;101680.06;;;17.83;88.82
39823;BME280;25499;53.958;10.970;2022-07-22T08:00:30;101697.44;;;17.96;89.76
39823;BME280;25499;53.958;10.970;2022-07-22T08:02:58;101682.56;;;17.92;91.00
39823;BME280;25499;53.958;10.970;2022-07-22T08:05:23;101692.97;;;18.00;90.66
39823;BME280;25499;53.958;10.970;2022-07-22T08:07:49;101693.75;;;18.05;90.91
39823;BME280;25499;53.958;10.970;2022-07-22T08:10:15;101690.44;;;17.94;88.77
39823;BME280;25499;53.958;10.970;2022-07-22T08:12:41;101692.84;;;18.07;88.64
39823;BME280;25499;53.958;10.970;2022-07-22T08:15:06;101690.91;;;18.14;88.57
39823;BME280;25499;53.958;10.970;2022-07-22T08:17:33;101697.72;;;18.26;89.02
39823;BME280;25499;53.958;10.970;2022-07-22T08:19:59;101696.84;;;18.27;89.64
39823;BME280;25499;53.958;10.970;2022-07-22T08:22:25;101700.78;;;18.48;88.50
39823;BME280;25499;53.958;10.970;2022-07-22T08:24:50;101696.81;;;18.29;86.85
39823;BME280;25499;53.958;10.970;2022-07-22T08:27:16;101698.28;;;18.42;87.78
39823;BME280;25499;53.958;10.970;2022-07-22T08:29:42;101697.50;;;18.38;87.88
39823;BME280;25499;53.958;10.970;2022-07-22T08:32:07;101703.97;;;18.66;87.45
39823;BME280;25499;53.958;10.970;2022-07-22T08:34:32;101707.22;;;18.77;85.60
39823;BME280;25499;53.958;10.970;2022-07-22T08:36:58;101706.91;;;18.92;85.19
39823;BME280;25499;53.958;10.970;2022-07-22T08:39:23;101698.41;;;18.78;85.09
39823;BME280;25499;53.958;10.970;2022-07-22T08:41:49;101702.53;;;18.49;83.24
39823;BME280;25499;53.958;10.970;2022-07-22T08:44:15;101708.53;;;18.57;84.65
39823;BME280;25499;53.958;10.970;2022-07-22T08:46:44;101705.78;;;18.62;83.58
39823;BME280;25499;53.958;10.970;2022-07-22T08:49:13;101713.47;;;18.73;84.57
39823;BME280;25499;53.958;10.970;2022-07-22T08:56:55;101715.22;;;18.74;85.80
39823;BME280;25499;53.958;10.970;2022-07-22T08:59:21;101712.16;;;18.94;84.21
39823;BME280;25499;53.958;10.970;2022-07-22T09:02:11;101715.66;;;18.96;81.78
39823;BME280;25499;53.958;10.970;2022-07-22T09:04:58;101711.72;;;18.72;83.62
39823;BME280;25499;53.958;10.970;2022-07-22T09:07:39;101718.22;;;18.97;83.21
39823;BME280;25499;53.958;10.970;2022-07-22T09:10:07;101717.97;;;19.10;81.21
39823;BME280;25499;53.958;10.970;2022-07-22T09:12:33;101715.28;;;19.11;79.87
39823;BME280;25499;53.958;10.970;2022-07-22T09:15:00;101718.50;;;18.85;81.04
39823;BME280;25499;53.958;10.970;2022-07-22T09:17:29;101724.84;;;19.15;81.46
39823;BME280;25499;53.958;10.970;2022-07-22T09:19:59;101716.31;;;18.63;81.51
39823;BME280;25499;53.958;10.970;2022-07-22T09:22:38;101714.88;;;18.49;82.23
39823;BME280;25499;53.958;10.970;2022-07-22T09:27:46;101729.47;;;18.21;83.67
39823;BME280;25499;53.958;10.970;2022-07-22T09:30:17;101726.94;;;18.15;83.10
39823;BME280;25499;53.958;10.970;2022-07-22T09:32:43;101718.47;;;17.98;82.90
39823;BME280;25499;53.958;10.970;2022-07-22T09:35:10;101728.50;;;18.25;83.08
39823;BME280;25499;53.958;10.970;2022-07-22T09:37:37;101738.31;;;18.62;81.41
39823;BME280;25499;53.958;10.970;2022-07-22T09:40:17;101734.06;;;18.97;80.80
39823;BME280;25499;53.958;10.970;2022-07-22T09:42:49;101732.03;;;18.68;80.33
39823;BME280;25499;53.958;10.970;2022-07-22T09:45:24;101734.56;;;18.73;80.11
39823;BME280;25499;53.958;10.970;2022-07-22T09:47:50;101739.56;;;19.26;79.07
39823;BME280;25499;53.958;10.970;2022-07-22T09:50:22;101733.13;;;19.37;77.62
39823;BME280;25499;53.958;10.970;2022-07-22T09:52:49;101741.06;;;19.75;77.63
39823;BME280;25499;53.958;10.970;2022-07-22T09:55:16;101749.00;;;21.02;75.42
39823;BME280;25499;53.958;10.970;2022-07-22T09:57:42;101726.56;;;20.54;73.12
39823;BME280;25499;53.958;10.970;2022-07-22T10:00:08;101728.03;;;20.02;74.30
39823;BME280;25499;53.958;10.970;2022-07-22T10:02:40;101740.34;;;19.67;75.67
39823;BME280;25499;53.958;10.970;2022-07-22T10:05:08;101734.13;;;19.33;75.49
39823;BME280;25499;53.958;10.970;2022-07-22T10:07:36;101740.16;;;19.38;76.82
39823;BME280;25499;53.958;10.970;2022-07-22T10:10:02;101739.69;;;19.21;75.42
39823;BME280;25499;53.958;10.970;2022-07-22T10:12:28;101742.34;;;19.93;74.27
39823;BME280;25499;53.958;10.970;2022-07-22T10:14:55;101735.31;;;20.56;71.57
39823;BME280;25499;53.958;10.970;2022-07-22T10:17:21;101724.84;;;20.22;71.83
39823;BME280;25499;53.958;10.970;2022-07-22T10:19:47;101726.94;;;20.09;72.08
39823;BME280;25499;53.958;10.970;2022-07-22T10:25:12;101734.81;;;21.04;70.67
39823;BME280;25499;53.958;10.970;2022-07-22T10:30:25;101730.84;;;20.90;67.36
39823;BME280;25499;53.958;10.970;2022-07-22T10:33:13;101729.91;;;20.91;68.62
39823;BME280;25499;53.958;10.970;2022-07-22T10:38:22;101725.38;;;20.66;68.96
39823;BME280;25499;53.958;10.970;2022-07-22T10:43:18;101732.84;;;21.66;67.13
39823;BME280;25499;53.958;10.970;2022-07-22T10:45:56;101720.06;;;22.03;66.47
39823;BME280;25499;53.958;10.970;2022-07-22T10:48:25;101728.53;;;22.39;64.20
39823;BME280;25499;53.958;10.970;2022-07-22T10:51:19;101724.97;;;21.90;64.39
39823;BME280;25499;53.958;10.970;2022-07-22T10:56:32;101725.81;;;21.37;66.25
39823;BME280;25499;53.958;10.970;2022-07-22T10:59:15;101716.88;;;21.13;66.20
39823;BME280;25499;53.958;10.970;2022-07-22T11:01:43;101725.06;;;21.05;67.10
39823;BME280;25499;53.958;10.970;2022-07-22T11:04:15;101729.38;;;21.08;67.47
39823;BME280;25499;53.958;10.970;2022-07-22T11:06:42;101718.06;;;20.74;65.68
39823;BME280;25499;53.958;10.970;2022-07-22T11:09:10;101718.84;;;21.06;64.80
39823;BME280;25499;53.958;10.970;2022-07-22T11:14:23;101718.22;;;21.54;63.66
39823;BME280;25499;53.958;10.970;2022-07-22T11:16:54;101720.84;;;21.81;62.72
39823;BME280;25499;53.958;10.970;2022-07-22T11:19:22;101718.13;;;22.08;62.31
39823;BME280;25499;53.958;10.970;2022-07-22T11:22:02;101723.59;;;22.76;59.81
39823;BME280;25499;53.958;10.970;2022-07-22T11:24:29;101702.59;;;21.72;58.43
39823;BME280;25499;53.958;10.970;2022-07-22T11:26:56;101710.13;;;21.31;59.85
39823;BME280;25499;53.958;10.970;2022-07-22T11:29:28;101710.22;;;21.28;59.33
39823;BME280;25499;53.958;10.970;2022-07-22T11:31:56;101714.28;;;21.38;60.78
39823;BME280;25499;53.958;10.970;2022-07-22T11:34:22;101719.91;;;21.55;61.66
39823;BME280;25499;53.958;10.970;2022-07-22T11:36:49;101717.41;;;21.24;62.28
39823;BME280;25499;53.958;10.970;2022-07-22T11:39:19;101721.63;;;21.58;61.33
39823;BME280;25499;53.958;10.970;2022-07-22T11:41:44;101714.94;;;21.73;61.98
39823;BME280;25499;53.958;10.970;2022-07-22T11:44:10;101729.38;;;22.14;60.26
39823;BME280;25499;53.958;10.970;2022-07-22T11:46:37;101713.03;;;22.27;59.20
39823;BME280;25499;53.958;10.970;2022-07-22T11:49:03;101708.03;;;22.17;57.49
39823;BME280;25499;53.958;10.970;2022-07-22T11:51:30;101718.44;;;22.24;58.76
39823;BME280;25499;53.958;10.970;2022-07-22T11:53:57;101712.28;;;21.98;57.69
39823;BME280;25499;53.958;10.970;2022-07-22T11:56:23;101700.88;;;21.71;59.09
39823;BME280;25499;53.958;10.970;2022-07-22T11:58:49;101701.28;;;21.58;59.35
39823;BME280;25499;53.958;10.970;2022-07-22T12:01:17;101711.50;;;21.94;59.28
39823;BME280;25499;53.958;10.970;2022-07-22T12:03:48;101699.69;;;21.79;59.34
39823;BME280;25499;53.958;10.970;2022-07-22T12:06:16;101705.03;;;21.78;59.58
39823;BME280;25499;53.958;10.970;2022-07-22T12:08:44;101698.41;;;21.38;58.35
39823;BME280;25499;53.958;10.970;2022-07-22T12:11:11;101703.13;;;21.56;58.59
39823;BME280;25499;53.958;10.970;2022-07-22T12:13:41;101704.59;;;21.65;59.48
39823;BME280;25499;53.958;10.970;2022-07-22T12:16:39;101713.19;;;21.72;59.82
39823;BME280;25499;53.958;10.970;2022-07-22T12:19:12;101713.25;;;21.95;58.71
39823;BME280;25499;53.958;10.970;2022-07-22T12:21:56;101710.22;;;22.79;57.61
39823;BME280;25499;53.958;10.970;2022-07-22T12:24:26;101702.06;;;22.83;55.90
39823;BME280;25499;53.958;10.970;2022-07-22T12:26:52;101689.44;;;21.69;55.97
39823;BME280;25499;53.958;10.970;2022-07-22T12:29:23;101695.56;;;21.71;57.25
39823;BME280;25499;53.958;10.970;2022-07-22T12:31:50;101694.53;;;21.75;57.63
39823;BME280;25499;53.958;10.970;2022-07-22T12:34:17;101698.44;;;22.15;59.22
39823;BME280;25499;53.958;10.970;2022-07-22T12:36:43;101688.31;;;22.50;55.91
39823;BME280;25499;53.958;10.970;2022-07-22T12:39:17;101677.63;;;22.28;55.30
39823;BME280;25499;53.958;10.970;2022-07-22T12:41:48;101674.88;;;22.06;55.70
39823;BME280;25499;53.958;10.970;2022-07-22T12:44:19;101658.06;;;21.56;55.65
39823;BME280;25499;53.958;10.970;2022-07-22T12:46:49;101672.16;;;21.57;56.27
39823;BME280;25499;53.958;10.970;2022-07-22T12:49:16;101688.88;;;22.09;56.60
39823;BME280;25499;53.958;10.970;2022-07-22T12:52:06;101679.50;;;22.24;56.01
39823;BME280;25499;53.958;10.970;2022-07-22T12:54:32;101677.88;;;21.96;56.64
39823;BME280;25499;53.958;10.970;2022-07-22T12:56:58;101681.97;;;22.54;55.70
39823;BME280;25499;53.958;10.970;2022-07-22T12:59:24;101670.16;;;22.39;55.67
39823;BME280;25499;53.958;10.970;2022-07-22T13:01:49;101672.19;;;22.78;56.81
39823;BME280;25499;53.958;10.970;2022-07-22T13:04:14;101654.91;;;21.95;54.29
39823;BME280;25499;53.958;10.970;2022-07-22T13:06:40;101668.13;;;21.97;55.17
39823;BME280;25499;53.958;10.970;2022-07-22T13:09:05;101674.25;;;22.23;55.85
39823;BME280;25499;53.958;10.970;2022-07-22T13:11:31;101664.59;;;22.22;55.70
39823;BME280;25499;53.958;10.970;2022-07-22T13:13:56;101660.38;;;22.40;56.18
39823;BME280;25499;53.958;10.970;2022-07-22T13:16:22;101661.75;;;22.50;56.13
39823;BME280;25499;53.958;10.970;2022-07-22T13:18:50;101663.25;;;22.33;57.37
39823;BME280;25499;53.958;10.970;2022-07-22T13:21:15;101671.56;;;22.48;57.25
39823;BME280;25499;53.958;10.970;2022-07-22T13:23:40;101667.88;;;22.52;56.69
39823;BME280;25499;53.958;10.970;2022-07-22T13:26:06;101659.41;;;22.42;55.53
39823;BME280;25499;53.958;10.970;2022-07-22T13:28:31;101663.75;;;22.20;56.63
39823;BME280;25499;53.958;10.970;2022-07-22T13:30:57;101676.75;;;22.27;56.36
39823;BME280;25499;53.958;10.970;2022-07-22T13:33:22;101681.72;;;22.37;56.68
39823;BME280;25499;53.958;10.970;2022-07-22T13:35:47;101667.81;;;22.53;55.71
39823;BME280;25499;53.958;10.970;2022-07-22T13:38:13;101664.84;;;22.39;55.81
39823;BME280;25499;53.958;10.970;2022-07-22T13:40:38;101660.06;;;22.49;55.47
39823;BME280;25499;53.958;10.970;2022-07-22T13:43:03;101661.41;;;22.12;56.86
39823;BME280;25499;53.958;10.970;2022-07-22T13:45:28;101666.09;;;22.52;56.24
39823;BME280;25499;53.958;10.970;2022-07-22T13:47:54;101666.03;;;22.54;56.30
39823;BME280;25499;53.958;10.970;2022-07-22T13:50:19;101670.16;;;22.39;55.83
39823;BME280;25499;53.958;10.970;2022-07-22T13:52:44;101661.66;;;22.29;54.32
39823;BME280;25499;53.958;10.970;2022-07-22T13:55:11;101663.56;;;22.01;55.04
39823;BME280;25499;53.958;10.970;2022-07-22T13:57:39;101657.31;;;21.78;54.99
39823;BME280;25499;53.958;10.970;2022-07-22T14:00:05;101648.97;;;21.64;55.37
39823;BME280;25499;53.958;10.970;2022-07-22T14:02:32;101655.88;;;21.69;56.07
39823;BME280;25499;53.958;10.970;2022-07-22T14:04:57;101645.84;;;21.52;56.26
39823;BME280;25499;53.958;10.970;2022-07-22T14:07:22;101644.34;;;21.43;56.36
39823;BME280;25499;53.958;10.970;2022-07-22T14:09:48;101656.22;;;21.58;56.91
39823;BME280;25499;53.958;10.970;2022-07-22T14:12:13;101664.47;;;21.76;57.09
39823;BME280;25499;53.958;10.970;2022-07-22T14:14:39;101658.03;;;21.83;56.45
39823;BME280;25499;53.958;10.970;2022-07-22T14:17:04;101652.94;;;21.77;56.34
39823;BME280;25499;53.958;10.970;2022-07-22T14:19:29;101648.91;;;21.38;56.69
39823;BME280;25499;53.958;10.970;2022-07-22T14:21:55;101657.63;;;21.69;56.96
39823;BME280;25499;53.958;10.970;2022-07-22T14:24:20;101643.91;;;21.31;56.03
39823;BME280;25499;53.958;10.970;2022-07-22T14:26:47;101645.63;;;21.32;57.01
39823;BME280;25499;53.958;10.970;2022-07-22T14:29:13;101641.53;;;20.95;57.36
39823;BME280;25499;53.958;10.970;2022-07-22T14:31:38;101641.41;;;20.71;58.06
39823;BME280;25499;53.958;10.970;2022-07-22T14:34:03;101645.78;;;20.72;59.30
39823;BME280;25499;53.958;10.970;2022-07-22T14:36:29;101646.88;;;20.65;59.19
39823;BME280;25499;53.958;10.970;2022-07-22T14:38:54;101631.31;;;20.54;58.65
39823;BME280;25499;53.958;10.970;2022-07-22T14:41:21;101626.53;;;20.67;59.01
39823;BME280;25499;53.958;10.970;2022-07-22T14:43:46;101641.53;;;20.95;58.71
39823;BME280;25499;53.958;10.970;2022-07-22T14:46:11;101640.25;;;20.80;57.67
39823;BME280;25499;53.958;10.970;2022-07-22T14:48:37;101645.25;;;20.89;57.90
39823;BME280;25499;53.958;10.970;2022-07-22T14:51:03;101661.34;;;20.83;58.51
39823;BME280;25499;53.958;10.970;2022-07-22T14:53:29;101663.56;;;20.67;58.09
39823;BME280;25499;53.958;10.970;2022-07-22T14:55:55;101661.31;;;20.53;57.86
39823;BME280;25499;53.958;10.970;2022-07-22T14:58:20;101654.44;;;20.47;58.71
39823;BME280;25499;53.958;10.970;2022-07-22T15:00:46;101649.78;;;20.26;58.72
39823;BME280;25499;53.958;10.970;2022-07-22T15:03:11;101649.88;;;20.23;58.99
39823;BME280;25499;53.958;10.970;2022-07-22T15:05:37;101655.16;;;20.23;58.84
39823;BME280;25499;53.958;10.970;2022-07-22T15:08:04;101643.50;;;20.30;59.29
39823;BME280;25499;53.958;10.970;2022-07-22T15:13:05;101664.66;;;20.60;59.85
39823;BME280;25499;53.958;10.970;2022-07-22T15:15:30;101650.59;;;20.58;59.58
39823;BME280;25499;53.958;10.970;2022-07-22T15:17:56;101665.31;;;20.68;59.64
39823;BME280;25499;53.958;10.970;2022-07-22T15:20:23;101653.72;;;20.72;59.41
39823;BME280;25499;53.958;10.970;2022-07-22T15:22:48;101657.75;;;20.84;59.12
39823;BME280;25499;53.958;10.970;2022-07-22T15:25:14;101652.34;;;20.59;58.34
39823;BME280;25499;53.958;10.970;2022-07-22T15:40:35;101653.09;;;20.03;59.88
39823;BME280;25499;53.958;10.970;2022-07-22T15:43:01;101663.88;;;20.26;60.58
39823;BME280;25499;53.958;10.970;2022-07-22T15:45:26;101655.84;;;20.59;59.66
39823;BME280;25499;53.958;10.970;2022-07-22T15:47:52;101655.50;;;20.42;59.02
39823;BME280;25499;53.958;10.970;2022-07-22T15:50:17;101654.22;;;20.25;58.31
39823;BME280;25499;53.958;10.970;2022-07-22T15:52:49;101652.13;;;20.37;58.52
39823;BME280;25499;53.958;10.970;2022-07-22T15:55:16;101644.03;;;20.41;58.21
39823;BME280;25499;53.958;10.970;2022-07-22T15:57:41;101655.44;;;20.43;58.43
39823;BME280;25499;53.958;10.970;2022-07-22T16:00:26;101646.72;;;20.40;58.39
39823;BME280;25499;53.958;10.970;2022-07-22T16:02:51;101646.00;;;20.35;58.78
39823;BME280;25499;53.958;10.970;2022-07-22T16:05:16;101644.50;;;20.26;58.75
39823;BME280;25499;53.958;10.970;2022-07-22T16:07:43;101635.41;;;20.05;58.50
39823;BME280;25499;53.958;10.970;2022-07-22T16:10:09;101645.50;;;20.22;58.93
39823;BME280;25499;53.958;10.970;2022-07-22T16:12:35;101641.69;;;20.32;58.33
39823;BME280;25499;53.958;10.970;2022-07-22T16:38:24;101639.31;;;19.59;60.65
39823;BME280;25499;53.958;10.970;2022-07-22T16:40:49;101648.00;;;19.62;60.58
39823;BME280;25499;53.958;10.970;2022-07-22T16:43:14;101644.66;;;19.55;60.44
39823;BME280;25499;53.958;10.970;2022-07-22T16:45:40;101638.00;;;19.41;60.38
39823;BME280;25499;53.958;10.970;2022-07-22T16:48:05;101639.66;;;19.43;59.68
39823;BME280;25499;53.958;10.970;2022-07-22T16:50:31;101632.50;;;19.48;60.24
39823;BME280;25499;53.958;10.970;2022-07-22T16:55:31;101643.03;;;19.50;60.04
39823;BME280;25499;53.958;10.970;2022-07-22T16:57:56;101629.88;;;19.12;60.49
39823;BME280;25499;53.958;10.970;2022-07-22T17:00:22;101640.09;;;19.26;60.56
39823;BME280;25499;53.958;10.970;2022-07-22T17:02:48;101640.28;;;19.54;60.48
39823;BME280;25499;53.958;10.970;2022-07-22T17:05:13;101632.63;;;19.44;60.56
39823;BME280;25499;53.958;10.970;2022-07-22T17:07:39;101632.88;;;18.98;60.69
39823;BME280;25499;53.958;10.970;2022-07-22T17:10:05;101639.97;;;18.96;61.95
39823;BME280;25499;53.958;10.970;2022-07-22T17:12:31;101635.81;;;18.86;62.17
39823;BME280;25499;53.958;10.970;2022-07-22T17:14:56;101638.69;;;19.13;62.19
39823;BME280;25499;53.958;10.970;2022-07-22T17:17:22;101638.75;;;19.10;61.92
39823;BME280;25499;53.958;10.970;2022-07-22T17:19:47;101637.97;;;19.06;62.33
39823;BME280;25499;53.958;10.970;2022-07-22T17:22:13;101638.91;;;19.04;62.15
39823;BME280;25499;53.958;10.970;2022-07-22T17:24:39;101643.69;;;19.24;61.01
39823;BME280;25499;53.958;10.970;2022-07-22T17:27:04;101649.72;;;19.29;61.55
39823;BME280;25499;53.958;10.970;2022-07-22T17:29:29;101648.03;;;19.26;61.71
39823;BME280;25499;53.958;10.970;2022-07-22T17:31:55;101654.06;;;19.31;60.93
39823;BME280;25499;53.958;10.970;2022-07-22T17:34:20;101639.91;;;18.99;61.24
39823;BME280;25499;53.958;10.970;2022-07-22T17:36:46;101641.16;;;18.83;61.14
39823;BME280;25499;53.958;10.970;2022-07-22T17:39:11;101646.81;;;18.64;61.60
39823;BME280;25499;53.958;10.970;2022-07-22T17:41:37;101635.44;;;18.62;62.03
39823;BME280;25499;53.958;10.970;2022-07-22T17:44:03;101641.66;;;18.58;62.36
39823;BME280;25499;53.958;10.970;2022-07-22T17:46:28;101647.25;;;18.44;62.78
39823;BME280;25499;53.958;10.970;2022-07-22T17:48:54;101648.00;;;18.50;63.31
39823;BME280;25499;53.958;10.970;2022-07-22T17:51:19;101652.81;;;18.31;63.59
39823;BME280;25499;53.958;10.970;2022-07-22T17:53:45;101642.28;;;18.31;63.20
39823;BME280;25499;53.958;10.970;2022-07-22T17:56:10;101656.22;;;18.36;63.78
39823;BME280;25499;53.958;10.970;2022-07-22T17:58:36;101645.16;;;18.18;63.88
39823;BME280;25499;53.958;10.970;2022-07-22T18:01:01;101647.00;;;18.15;63.98
39823;BME280;25499;53.958;10.970;2022-07-22T18:03:26;101640.72;;;18.20;64.35
39823;BME280;25499;53.958;10.970;2022-07-22T18:05:52;101636.44;;;18.16;65.24
39823;BME280;25499;53.958;10.970;2022-07-22T18:08:18;101634.69;;;18.15;64.69
39823;BME280;25499;53.958;10.970;2022-07-22T18:10:44;101637.31;;;18.15;63.97
39823;BME280;25499;53.958;10.970;2022-07-22T18:13:09;101632.16;;;18.09;63.98
39823;BME280;25499;53.958;10.970;2022-07-22T18:15:34;101631.72;;;18.31;62.80
39823;BME280;25499;53.958;10.970;2022-07-22T18:18:00;101622.50;;;18.10;62.75
39823;BME280;25499;53.958;10.970;2022-07-22T18:20:25;101623.03;;;18.25;62.82
39823;BME280;25499;53.958;10.970;2022-07-22T18:22:50;101626.13;;;18.04;63.60
39823;BME280;25499;53.958;10.970;2022-07-22T18:25:16;101620.94;;;18.01;63.41
39823;BME280;25499;53.958;10.970;2022-07-22T18:27:41;101623.38;;;18.10;63.96
39823;BME280;25499;53.958;10.970;2022-07-22T18:30:07;101627.63;;;18.16;63.83
39823;BME280;25499;53.958;10.970;2022-07-22T18:32:33;101624.13;;;18.15;63.76
39823;BME280;25499;53.958;10.970;2022-07-22T18:34:58;101623.38;;;18.10;64.01
39823;BME280;25499;53.958;10.970;2022-07-22T18:37:24;101621.94;;;17.94;64.16
39823;BME280;25499;53.958;10.970;2022-07-22T18:39:49;101623.88;;;17.84;64.22
39823;BME280;25499;53.958;10.970;2022-07-22T18:42:14;101624.06;;;17.73;64.25
39823;BME280;25499;53.958;10.970;2022-07-22T18:44:40;101627.81;;;17.60;64.73
39823;BME280;25499;53.958;10.970;2022-07-22T18:47:05;101619.22;;;17.51;64.89
39823;BME280;25499;53.958;10.970;2022-07-22T18:49:30;101618.31;;;17.51;65.33
39823;BME280;25499;53.958;10.970;2022-07-22T18:51:56;101619.34;;;17.42;65.19
39823;BME280;25499;53.958;10.970;2022-07-22T18:54:22;101635.13;;;17.44;65.51
39823;BME280;25499;53.958;10.970;2022-07-22T18:56:47;101628.22;;;17.38;66.31
39823;BME280;25499;53.958;10.970;2022-07-22T18:59:13;101629.00;;;17.43;65.81
39823;BME280;25499;53.958;10.970;2022-07-22T19:01:38;101633.22;;;17.52;65.63
39823;BME280;25499;53.958;10.970;2022-07-22T19:04:04;101637.00;;;17.37;65.66
39823;BME280;25499;53.958;10.970;2022-07-22T19:06:29;101625.66;;;17.33;65.25
39823;BME280;25499;53.958;10.970;2022-07-22T19:08:54;101630.16;;;17.25;66.19
39823;BME280;25499;53.958;10.970;2022-07-22T19:11:21;101627.78;;;17.10;66.81
39823;BME280;25499;53.958;10.970;2022-07-22T19:13:47;101636.28;;;17.26;66.32
39823;BME280;25499;53.958;10.970;2022-07-22T19:16:12;101631.94;;;17.25;66.22
39823;BME280;25499;53.958;10.970;2022-07-22T19:18:38;101636.13;;;17.37;66.07
39823;BME280;25499;53.958;10.970;2022-07-22T19:21:03;101646.75;;;17.30;66.38